Time;durP1;ratioP1;P1;durP2;ratioP2;P2;SDS_P1;SDS_P2;PMS_P1;PMS_P2;Temp;Humidity;BMP_temperature;BMP_pressure;BME280_temperature;BME280_humidity;BME280_pressure;Samples;Min_cycle;Max_cycle;Signal;HPM_P1;HPM_P2
2023/09/05 00:00:44;;;;;;;6.40;5.00;;;;;;;11.96;72.86;101346.42;132064;1248;107545;-79
2023/09/05 00:04:10;;;;;;;5.80;4.30;;;;;;;11.94;72.96;101352.35;131985;1248;107886;-79
2023/09/05 00:07:16;;;;;;;5.90;4.40;;;;;;;11.92;72.76;101354.52;131918;1248;107379;-78
2023/09/05 00:10:23;;;;;;;6.10;4.70;;;;;;;11.92;72.75;101353.77;131963;1251;106550;-78
2023/09/05 00:13:28;;;;;;;5.80;4.40;;;;;;;11.92;73.00;101347.37;131996;1250;107547;-79
2023/09/05 00:16:33;;;;;;;7.00;4.90;;;;;;;11.93;72.78;101343.90;131825;1247;106056;-78
2023/09/05 00:19:39;;;;;;;5.40;4.70;;;;;;;11.93;72.80;101342.79;131940;1253;107195;-79
2023/09/05 00:22:44;;;;;;;7.60;5.20;;;;;;;11.91;72.84;101341.18;131902;1250;107529;-79
2023/09/05 00:25:50;;;;;;;9.60;5.40;;;;;;;11.86;72.94;101341.27;131894;1250;106413;-79
2023/09/05 00:28:56;;;;;;;7.50;5.40;;;;;;;11.83;72.97;101342.98;131760;1250;107536;-79
2023/09/05 00:32:03;;;;;;;7.80;4.90;;;;;;;11.80;73.11;101343.73;131726;1253;107395;-79
2023/09/05 00:35:11;;;;;;;6.20;4.90;;;;;;;11.75;73.03;101344.81;131872;1250;107579;-80
2023/09/05 00:38:17;;;;;;;8.10;5.20;;;;;;;11.70;73.19;101344.20;131838;1248;107242;-79
2023/09/05 00:41:22;;;;;;;7.20;4.90;;;;;;;11.67;72.93;101347.73;131729;1248;107484;-78
2023/09/05 00:44:29;;;;;;;7.40;4.10;;;;;;;11.64;73.25;101346.73;131817;1253;107512;-78
2023/09/05 00:47:34;;;;;;;6.80;5.30;;;;;;;11.64;73.15;101344.59;131885;1248;107229;-78
2023/09/05 00:50:41;;;;;;;8.10;5.00;;;;;;;11.64;72.98;101342.63;131938;1248;107213;-79
2023/09/05 00:53:47;;;;;;;7.30;5.10;;;;;;;11.63;72.87;101339.13;131787;1250;107524;-78
2023/09/05 00:56:54;;;;;;;9.30;5.30;;;;;;;11.61;73.12;101338.23;131949;1247;156360;-79
2023/09/05 00:59:59;;;;;;;7.70;5.30;;;;;;;11.57;73.26;101339.44;131988;1247;107206;-78
2023/09/05 01:03:06;;;;;;;7.00;5.40;;;;;;;11.55;72.96;101340.16;131928;1251;107593;-79
2023/09/05 01:06:22;;;;;;;8.30;5.30;;;;;;;11.53;73.05;101334.27;132019;1250;107543;-79
2023/09/05 01:09:37;;;;;;;7.20;5.20;;;;;;;11.52;73.33;101336.38;131896;1253;107480;-79
2023/09/05 01:12:43;;;;;;;7.90;5.40;;;;;;;11.48;73.06;101332.76;131929;1251;108636;-79
2023/09/05 01:15:48;;;;;;;6.60;5.00;;;;;;;11.45;73.19;101325.92;131947;1252;107400;-79
2023/09/05 01:18:54;;;;;;;9.30;5.00;;;;;;;11.42;73.43;101326.70;131957;1253;107529;-79
2023/09/05 01:22:11;;;;;;;6.60;4.70;;;;;;;11.40;73.48;101325.59;131939;1260;107556;-78
2023/09/05 01:25:19;;;;;;;8.30;5.50;;;;;;;11.38;73.38;101325.25;131992;1253;106698;-78
2023/09/05 01:28:26;;;;;;;9.70;5.80;;;;;;;11.37;73.63;101322.97;131859;1250;107232;-78
2023/09/05 01:31:32;;;;;;;8.70;5.40;;;;;;;11.36;73.39;101320.02;131957;1253;107404;-78
2023/09/05 01:34:39;;;;;;;8.10;5.50;;;;;;;11.35;73.56;101322.11;131981;1248;107360;-78
2023/09/05 01:37:45;;;;;;;7.70;5.50;;;;;;;11.33;73.28;101322.66;132142;1253;107541;-78
2023/09/05 01:40:51;;;;;;;10.30;6.10;;;;;;;11.32;73.39;101320.60;131996;1247;107461;-78
2023/09/05 01:43:56;;;;;;;7.40;5.90;;;;;;;11.31;73.51;101323.69;131939;1253;107216;-78
2023/09/05 01:47:01;;;;;;;6.80;5.20;;;;;;;11.30;73.57;101325.23;132017;1250;107618;-79
2023/09/05 01:50:09;;;;;;;9.00;5.60;;;;;;;11.26;73.61;101320.76;132152;1252;106522;-79
2023/09/05 01:53:14;;;;;;;9.40;5.80;;;;;;;11.22;73.41;101325.55;132038;1247;106512;-78
2023/09/05 01:56:19;;;;;;;6.90;5.30;;;;;;;11.20;73.52;101325.55;132070;1252;107654;-79
2023/09/05 01:59:25;;;;;;;7.70;5.30;;;;;;;11.16;73.76;101323.00;131799;1248;107460;-79
2023/09/05 02:02:31;;;;;;;6.90;5.80;;;;;;;11.13;73.70;101322.39;131757;1250;106559;-79
2023/09/05 02:05:36;;;;;;;7.20;5.60;;;;;;;11.12;73.71;101321.52;131894;1250;107365;-79
2023/09/05 02:08:42;;;;;;;7.90;5.60;;;;;;;11.16;73.74;101317.85;131887;1250;107433;-78
2023/09/05 02:11:47;;;;;;;7.60;5.90;;;;;;;11.17;73.82;101318.85;131783;1250;107562;-78
2023/09/05 02:14:53;;;;;;;9.50;6.50;;;;;;;11.16;73.72;101312.14;131816;1253;107487;-79
2023/09/05 02:18:02;;;;;;;7.90;5.70;;;;;;;11.14;73.89;101316.60;132013;1251;108700;-79
2023/09/05 02:21:07;;;;;;;9.30;5.90;;;;;;;11.11;73.83;101313.13;132052;1250;107448;-79
2023/09/05 02:24:14;;;;;;;7.50;6.00;;;;;;;11.08;73.93;101310.89;131720;1250;107976;-79
2023/09/05 02:27:19;;;;;;;9.00;5.40;;;;;;;11.05;73.99;101312.63;131383;1248;107246;-78
2023/09/05 02:30:25;;;;;;;7.90;5.90;;;;;;;10.99;73.88;101313.95;131339;1253;107362;-79
2023/09/05 02:33:33;;;;;;;7.60;5.60;;;;;;;10.94;74.23;101311.16;131387;1262;107208;-80
2023/09/05 02:36:39;;;;;;;8.50;5.00;;;;;;;10.92;73.93;101307.80;131792;1250;107489;-76
2023/09/05 02:39:45;;;;;;;8.60;5.50;;;;;;;10.90;74.13;101309.55;131498;1247;107337;-76
2023/09/05 02:42:50;;;;;;;7.70;5.40;;;;;;;10.90;74.25;101309.40;131493;1250;107360;-76
2023/09/05 02:45:56;;;;;;;7.50;5.40;;;;;;;10.92;74.11;101307.43;131345;1248;108193;-76
2023/09/05 02:49:01;;;;;;;10.00;5.50;;;;;;;10.93;74.28;101307.54;131351;1253;107587;-77
2023/09/05 02:52:07;;;;;;;7.60;5.20;;;;;;;10.93;74.15;101305.24;131381;1253;107578;-76
2023/09/05 02:55:12;;;;;;;7.50;5.80;;;;;;;10.91;74.13;101303.58;131150;1251;107405;-79
2023/09/05 02:58:19;;;;;;;7.90;5.70;;;;;;;10.89;74.21;101304.09;131270;1253;107524;-77
2023/09/05 03:01:25;;;;;;;8.40;5.70;;;;;;;10.85;74.07;101306.26;131362;1247;107230;-77
2023/09/05 03:04:32;;;;;;;8.00;5.50;;;;;;;10.78;74.17;101304.91;131467;1250;107233;-78
2023/09/05 03:07:37;;;;;;;7.60;5.40;;;;;;;10.71;74.11;101306.19;131276;1254;107692;-76
2023/09/05 03:10:43;;;;;;;7.50;5.30;;;;;;;10.69;74.41;101307.92;131384;1251;107499;-76
2023/09/05 03:13:50;;;;;;;8.20;4.50;;;;;;;10.68;74.68;101311.42;131367;1247;107444;-76
2023/09/05 03:16:55;;;;;;;7.30;5.10;;;;;;;10.66;74.44;101314.58;131435;1251;107623;-76
2023/09/05 03:20:02;;;;;;;7.60;5.20;;;;;;;10.67;74.45;101318.44;131296;1251;107590;-78
2023/09/05 03:23:07;;;;;;;10.50;5.50;;;;;;;10.68;74.44;101325.79;131486;1247;107527;-76
2023/09/05 03:26:13;;;;;;;6.90;5.10;;;;;;;10.71;74.43;101325.61;131375;1251;106510;-77
2023/09/05 03:29:18;;;;;;;7.50;5.60;;;;;;;10.72;74.88;101327.78;131187;1253;107536;-76
2023/09/05 03:32:24;;;;;;;7.80;5.70;;;;;;;10.73;74.55;101330.43;131355;1251;108524;-76
2023/09/05 03:35:29;;;;;;;9.00;5.60;;;;;;;10.70;74.48;101325.30;131465;1250;107488;-77
2023/09/05 03:38:35;;;;;;;7.60;5.80;;;;;;;10.68;74.77;101324.91;131384;1254;107261;-77
2023/09/05 03:41:40;;;;;;;9.10;5.40;;;;;;;10.65;74.60;101323.38;131372;1248;107497;-77
2023/09/05 03:44:46;;;;;;;7.30;5.50;;;;;;;10.57;74.84;101325.63;131478;1252;107256;-76
2023/09/05 03:47:51;;;;;;;7.80;5.10;;;;;;;10.54;74.95;101322.88;131159;1251;107503;-76
2023/09/05 03:50:57;;;;;;;8.90;5.50;;;;;;;10.53;74.80;101324.70;131265;1253;107574;-76
2023/09/05 03:54:03;;;;;;;9.40;5.60;;;;;;;10.56;75.06;101328.91;131391;1250;106117;-76
2023/09/05 03:57:09;;;;;;;7.10;5.40;;;;;;;10.60;75.04;101340.73;131194;1253;107517;-76
2023/09/05 04:00:18;;;;;;;8.70;5.80;;;;;;;10.62;74.91;101339.51;131373;1254;107421;-76
2023/09/05 04:03:23;;;;;;;9.00;5.40;;;;;;;10.63;74.85;101336.39;131482;1250;107555;-76
2023/09/05 04:06:29;;;;;;;8.90;5.90;;;;;;;10.60;74.99;101334.61;131416;1252;107693;-76
2023/09/05 04:09:34;;;;;;;8.40;6.00;;;;;;;10.61;74.95;101339.02;131198;1253;107528;-76
2023/09/05 04:12:40;;;;;;;7.80;6.00;;;;;;;10.62;74.88;101344.27;131403;1251;107430;-76
2023/09/05 04:15:45;;;;;;;8.10;5.80;;;;;;;10.63;75.17;101347.74;131449;1248;107482;-76
2023/09/05 04:18:51;;;;;;;8.40;5.50;;;;;;;10.60;75.02;101342.11;131362;1250;107202;-76
2023/09/05 04:21:56;;;;;;;7.60;5.20;;;;;;;10.62;75.26;101347.12;131360;1248;108485;-79
2023/09/05 04:25:02;;;;;;;8.40;5.50;;;;;;;10.66;75.11;101351.81;131453;1248;109118;-79
2023/09/05 04:28:08;;;;;;;7.30;5.60;;;;;;;10.73;75.47;101350.11;131331;1250;107055;-77
2023/09/05 04:31:18;;;;;;;8.20;5.50;;;;;;;10.82;75.45;101349.23;131471;1248;108531;-77
2023/09/05 04:34:23;;;;;;;10.10;5.50;;;;;;;10.89;75.13;101344.57;131354;1253;106469;-77
2023/09/05 04:37:30;;;;;;;8.40;6.30;;;;;;;11.01;75.44;101343.92;131360;1254;107120;-77
2023/09/05 04:40:39;;;;;;;7.60;5.50;;;;;;;11.15;75.69;101347.66;131423;1248;107659;-77
2023/09/05 04:43:45;;;;;;;8.50;5.50;;;;;;;11.31;75.41;101349.02;131355;1248;106582;-77
2023/09/05 04:46:50;;;;;;;9.30;6.10;;;;;;;11.46;75.53;101349.88;131468;1248;108363;-77
2023/09/05 04:49:58;;;;;;;7.00;4.90;;;;;;;11.57;75.62;101352.98;131478;1254;106513;-77
2023/09/05 04:53:04;;;;;;;6.70;4.70;;;;;;;11.71;75.69;101353.41;132810;1250;106581;-77
2023/09/05 04:56:09;;;;;;;7.80;5.20;;;;;;;11.90;75.55;101351.23;131396;1252;108104;-77
2023/09/05 04:59:15;;;;;;;6.80;5.00;;;;;;;12.11;75.67;101355.13;131411;1250;106365;-77
2023/09/05 05:02:21;;;;;;;6.60;5.30;;;;;;;12.34;75.60;101352.41;131391;1250;106859;-77
2023/09/05 05:05:26;;;;;;;7.60;5.70;;;;;;;12.52;75.54;101351.28;131547;1253;106822;-76
2023/09/05 05:08:32;;;;;;;10.60;6.20;;;;;;;12.69;75.74;101347.59;131426;1250;107562;-77
2023/09/05 05:11:38;;;;;;;7.30;5.50;;;;;;;12.86;75.98;101345.90;131363;1247;106631;-77
2023/09/05 05:14:43;;;;;;;10.10;5.90;;;;;;;13.02;75.79;101348.50;131411;1250;108844;-78
2023/09/05 05:17:49;;;;;;;7.70;6.10;;;;;;;13.15;75.81;101348.54;131309;1250;106847;-77
2023/09/05 05:20:55;;;;;;;8.80;5.60;;;;;;;13.30;75.91;101350.05;131461;1247;107517;-78
2023/09/05 05:24:00;;;;;;;7.50;5.60;;;;;;;13.41;76.22;101345.95;131397;1247;109310;-78
2023/09/05 05:27:06;;;;;;;7.70;5.80;;;;;;;13.51;76.72;101343.05;131395;1250;107709;-78
2023/09/05 05:30:14;;;;;;;9.00;6.00;;;;;;;13.59;76.56;101347.67;131202;1253;106582;-78
2023/09/05 05:33:20;;;;;;;9.00;5.40;;;;;;;13.67;76.88;101352.48;131454;1250;106739;-78
2023/09/05 05:36:26;;;;;;;8.70;5.40;;;;;;;13.74;76.88;101352.48;131414;1251;107107;-77
2023/09/05 05:39:32;;;;;;;8.60;5.70;;;;;;;13.82;77.12;101354.64;131433;1248;108129;-77
2023/09/05 05:42:37;;;;;;;6.10;5.00;;;;;;;13.88;77.26;101347.03;131368;1249;105781;-76
2023/09/05 05:45:43;;;;;;;6.80;4.80;;;;;;;13.94;77.55;101339.10;131418;1253;108694;-77
2023/09/05 05:48:49;;;;;;;8.20;5.70;;;;;;;14.03;77.78;101341.43;131463;1247;106880;-76
2023/09/05 05:51:54;;;;;;;8.40;5.80;;;;;;;14.14;78.06;101341.48;131380;1250;106604;-77
2023/09/05 05:55:00;;;;;;;6.80;5.70;;;;;;;14.24;78.32;101342.86;131258;1250;106905;-76
2023/09/05 05:58:06;;;;;;;8.30;6.10;;;;;;;14.35;78.53;101346.72;131435;1250;106865;-77
2023/09/05 06:01:11;;;;;;;7.80;6.10;;;;;;;14.46;78.53;101343.02;131352;1250;108399;-77
2023/09/05 06:04:17;;;;;;;7.60;6.00;;;;;;;14.57;78.90;101343.21;131424;1250;107578;-77
2023/09/05 06:07:23;;;;;;;8.70;6.10;;;;;;;14.69;79.22;101347.17;131444;1254;107954;-77
2023/09/05 06:10:28;;;;;;;9.60;5.60;;;;;;;14.82;79.33;101348.27;131395;1250;106413;-77
2023/09/05 06:13:34;;;;;;;8.00;5.80;;;;;;;14.96;79.07;101345.39;131379;1254;107991;-77
2023/09/05 06:16:40;;;;;;;8.70;6.00;;;;;;;15.09;79.07;101344.27;131387;1250;108335;-77
2023/09/05 06:19:45;;;;;;;8.20;6.20;;;;;;;15.20;79.09;101341.48;131429;1254;106573;-77
2023/09/05 06:22:51;;;;;;;10.50;6.10;;;;;;;15.31;79.22;101337.33;131380;1250;107070;-77
2023/09/05 06:25:56;;;;;;;6.30;5.50;;;;;;;15.43;79.43;101339.05;131394;1250;108673;-78
2023/09/05 06:29:02;;;;;;;6.60;4.60;;;;;;;15.53;79.65;101342.23;131384;1253;107830;-78
2023/09/05 06:32:08;;;;;;;7.20;4.70;;;;;;;15.66;79.66;101338.92;131368;1246;106542;-77
2023/09/05 06:35:13;;;;;;;8.00;5.20;;;;;;;15.79;79.62;101337.23;131485;1250;108705;-78
2023/09/05 06:38:21;;;;;;;6.60;4.80;;;;;;;15.94;79.37;101334.84;131305;1253;108596;-80
2023/09/05 06:41:27;;;;;;;6.80;4.80;;;;;;;16.06;79.36;101328.54;131360;1254;106698;-80
2023/09/05 06:44:33;;;;;;;6.70;4.70;;;;;;;16.18;79.22;101328.16;131406;1251;108562;-79
2023/09/05 06:47:39;;;;;;;9.70;4.20;;;;;;;16.27;79.25;101325.75;131386;1250;107691;-78
2023/09/05 06:50:45;;;;;;;6.00;4.20;;;;;;;16.36;79.17;101321.73;131438;1247;107821;-78
2023/09/05 06:53:50;;;;;;;6.50;4.40;;;;;;;16.44;78.96;101320.46;131383;1250;106809;-78
2023/09/05 06:56:56;;;;;;;5.20;4.10;;;;;;;16.55;78.71;101320.95;131397;1247;107666;-77
2023/09/05 07:00:03;;;;;;;8.20;4.20;;;;;;;16.68;78.73;101324.54;131686;1248;107709;-79
2023/09/05 07:03:10;;;;;;;6.80;4.30;;;;;;;16.82;78.36;101327.61;131451;1253;107417;-79
2023/09/05 07:06:18;;;;;;;5.00;3.90;;;;;;;16.94;78.36;101326.30;131677;1248;106815;-79
2023/09/05 07:09:24;;;;;;;6.60;4.20;;;;;;;17.05;78.32;101325.99;131513;1250;107268;-79
2023/09/05 07:12:29;;;;;;;7.00;4.30;;;;;;;17.16;78.13;101328.02;131387;1250;107625;-78
2023/09/05 07:15:36;;;;;;;4.90;3.60;;;;;;;17.23;77.91;101331.84;131455;1248;107415;-78
2023/09/05 07:18:41;;;;;;;7.00;3.50;;;;;;;17.30;77.77;101336.50;131414;1253;107486;-77
2023/09/05 07:21:47;;;;;;;7.10;3.20;;;;;;;17.37;77.63;101337.12;131350;1248;107050;-78
2023/09/05 07:24:53;;;;;;;4.90;3.40;;;;;;;17.47;77.44;101339.53;131365;1252;107619;-78
2023/09/05 07:28:00;;;;;;;6.10;3.40;;;;;;;17.58;77.17;101337.48;131439;1253;106771;-78
2023/09/05 07:31:06;;;;;;;6.70;3.60;;;;;;;17.72;76.92;101340.24;131500;1250;106842;-78
2023/09/05 07:34:12;;;;;;;4.00;3.40;;;;;;;17.84;76.89;101341.48;131377;1247;107413;-78
2023/09/05 07:37:18;;;;;;;4.10;3.10;;;;;;;17.95;76.62;101339.32;131407;1250;107389;-78
2023/09/05 07:40:25;;;;;;;6.20;3.40;;;;;;;18.04;76.38;101336.89;131391;1250;106743;-78
2023/09/05 07:43:32;;;;;;;4.20;3.30;;;;;;;18.11;76.12;101340.90;131418;1253;107763;-78
2023/09/05 07:46:38;;;;;;;5.80;3.30;;;;;;;18.19;75.71;101339.60;131457;1250;108090;-78
2023/09/05 07:49:44;;;;;;;5.20;3.40;;;;;;;18.26;75.51;101341.90;131481;1248;107355;-78
2023/09/05 07:52:50;;;;;;;4.30;3.20;;;;;;;18.34;75.70;101343.36;131371;1248;107807;-78
2023/09/05 07:55:56;;;;;;;5.70;3.60;;;;;;;18.40;75.28;101342.77;131476;1250;107653;-77
2023/09/05 07:59:02;;;;;;;5.20;2.90;;;;;;;18.46;75.36;101340.90;131426;1251;107560;-80
2023/09/05 08:02:10;;;;;;;5.70;3.10;;;;;;;18.53;74.94;101341.35;131449;1248;108623;-78
2023/09/05 08:05:17;;;;;;;5.40;3.40;;;;;;;18.62;74.80;101342.64;131541;1248;107478;-78
2023/09/05 08:08:23;;;;;;;6.70;3.50;;;;;;;18.72;74.62;101341.58;131430;1253;107684;-78
2023/09/05 08:11:28;;;;;;;3.70;3.00;;;;;;;18.83;74.03;101342.92;131416;1252;106614;-78
2023/09/05 08:14:34;;;;;;;4.40;3.10;;;;;;;18.93;74.04;101341.86;131344;1252;108651;-78
2023/09/05 08:17:39;;;;;;;4.70;2.90;;;;;;;19.02;73.71;101342.84;131387;1254;108782;-77
2023/09/05 08:20:46;;;;;;;3.70;2.80;;;;;;;19.08;73.39;101346.03;131442;1247;107673;-77
2023/09/05 08:23:52;;;;;;;4.50;3.10;;;;;;;19.15;73.24;101343.23;131412;1251;107048;-77
2023/09/05 08:26:58;;;;;;;4.10;2.70;;;;;;;19.20;72.65;101344.02;131469;1250;107920;-78
2023/09/05 08:30:04;;;;;;;4.00;3.30;;;;;;;19.27;72.81;101343.08;131455;1250;108514;-78
2023/09/05 08:33:09;;;;;;;4.80;2.90;;;;;;;19.34;72.63;101344.16;131478;1248;108006;-78
2023/09/05 08:36:15;;;;;;;7.00;3.30;;;;;;;19.40;72.26;101342.05;131299;1251;108610;-78
2023/09/05 08:39:21;;;;;;;4.70;3.10;;;;;;;19.45;71.92;101344.40;131451;1253;106893;-78
2023/09/05 08:42:29;;;;;;;4.60;3.10;;;;;;;19.51;71.72;101345.07;131444;1261;106890;-78
2023/09/05 08:45:37;;;;;;;3.90;3.10;;;;;;;19.56;70.81;101348.83;131497;1254;107636;-78
2023/09/05 08:48:43;;;;;;;5.20;2.90;;;;;;;19.60;70.18;101349.96;131471;1250;107807;-77
2023/09/05 08:51:54;;;;;;;4.20;2.80;;;;;;;19.71;70.89;101346.67;131559;1261;106754;-77
2023/09/05 08:55:02;;;;;;;5.70;2.80;;;;;;;19.78;70.28;101349.05;131447;1251;108452;-78
2023/09/05 08:58:10;;;;;;;3.40;2.60;;;;;;;19.86;69.55;101348.45;131413;1253;107628;-78
2023/09/05 09:01:16;;;;;;;5.00;2.70;;;;;;;19.94;69.54;101354.30;131481;1254;107320;-77
2023/09/05 09:04:22;;;;;;;4.40;3.20;;;;;;;20.01;68.95;101350.81;131495;1253;106822;-78
2023/09/05 09:07:29;;;;;;;4.50;2.60;;;;;;;20.05;68.56;101341.44;131434;1253;107674;-78
2023/09/05 09:10:34;;;;;;;5.00;2.70;;;;;;;20.12;68.65;101340.02;131456;1251;107779;-77
2023/09/05 09:13:40;;;;;;;3.70;2.70;;;;;;;20.21;68.49;101335.84;131469;1248;106714;-78
2023/09/05 09:16:46;;;;;;;3.30;3.00;;;;;;;20.29;68.10;101333.92;131455;1254;107177;-77
2023/09/05 09:19:55;;;;;;;4.30;2.40;;;;;;;20.36;67.58;101336.98;131560;1247;106355;-77
2023/09/05 09:23:00;;;;;;;4.80;2.50;;;;;;;20.41;65.31;101335.69;131458;1251;107032;-78
2023/09/05 09:26:06;;;;;;;4.90;2.80;;;;;;;20.48;65.69;101334.70;131439;1247;106444;-78
2023/09/05 09:29:12;;;;;;;3.80;2.30;;;;;;;20.51;62.88;101339.02;131398;1251;108506;-78
2023/09/05 09:32:22;;;;;;;3.50;2.40;;;;;;;20.54;64.13;101341.80;131516;1251;108701;-78
2023/09/05 09:35:28;;;;;;;7.00;2.40;;;;;;;20.64;62.98;101336.64;131488;1252;105854;-77
2023/09/05 09:38:34;;;;;;;4.50;2.40;;;;;;;20.71;63.90;101335.75;131504;1250;107656;-77
2023/09/05 09:41:45;;;;;;;2.90;2.50;;;;;;;20.81;64.66;101325.16;131449;1250;106622;-78
2023/09/05 09:44:52;;;;;;;5.60;2.70;;;;;;;20.91;64.41;101325.73;131443;1250;107699;-77
2023/09/05 09:48:00;;;;;;;3.50;2.40;;;;;;;20.99;64.12;101323.15;131383;1250;106305;-77
2023/09/05 09:51:07;;;;;;;4.30;2.70;;;;;;;21.02;63.01;101312.52;131511;1253;106764;-78
2023/09/05 09:54:14;;;;;;;2.70;2.50;;;;;;;21.05;63.65;101313.05;131387;1248;107754;-77
2023/09/05 09:57:28;;;;;;;4.10;2.50;;;;;;;21.07;63.29;101310.02;131451;1248;107022;-77
2023/09/05 10:00:35;;;;;;;3.60;2.40;;;;;;;21.08;63.17;101314.48;131426;1253;107492;-77
2023/09/05 10:03:44;;;;;;;4.90;2.90;;;;;;;21.08;63.38;101309.81;131431;1248;107705;-79
2023/09/05 10:06:50;;;;;;;3.40;2.40;;;;;;;21.06;63.30;101306.02;131512;1250;107653;-77
2023/09/05 10:09:57;;;;;;;4.30;2.60;;;;;;;21.06;63.18;101307.70;131421;1252;106454;-77
2023/09/05 10:13:03;;;;;;;3.80;2.60;;;;;;;21.05;62.61;101306.11;131417;1251;106558;-78
2023/09/05 10:16:09;;;;;;;4.30;2.60;;;;;;;21.06;62.13;101302.91;131273;1257;107306;-79
2023/09/05 10:19:16;;;;;;;3.50;2.60;;;;;;;21.08;61.36;101293.87;131266;1250;107717;-79
2023/09/05 10:22:24;;;;;;;3.30;2.50;;;;;;;21.13;62.03;101289.02;131353;1251;107688;-78
2023/09/05 10:25:30;;;;;;;3.10;2.30;;;;;;;21.20;61.64;101292.83;131344;1254;107151;-78
2023/09/05 10:28:37;;;;;;;4.40;2.50;;;;;;;21.27;61.46;101288.13;131423;1247;106687;-78
2023/09/05 10:31:44;;;;;;;3.80;2.40;;;;;;;21.33;60.99;101289.20;131416;1250;108099;-78
2023/09/05 10:35:02;;;;;;;3.30;2.60;;;;;;;21.38;60.69;101289.44;131486;1250;108255;-78
2023/09/05 10:38:09;;;;;;;3.90;2.10;;;;;;;21.42;60.50;101293.02;131525;1248;106719;-78
2023/09/05 10:41:37;;;;;;;3.10;2.30;;;;;;;21.43;60.67;101288.58;131417;1255;108636;-79
2023/09/05 10:44:45;;;;;;;4.30;2.50;;;;;;;21.48;60.37;101282.85;131430;1250;106344;-78
2023/09/05 10:47:53;;;;;;;3.60;2.60;;;;;;;21.52;59.97;101276.94;131383;1257;106585;-78
2023/09/05 10:51:13;;;;;;;3.40;2.30;;;;;;;21.51;59.97;101272.34;131494;1251;108589;-78
2023/09/05 10:54:32;;;;;;;3.80;2.60;;;;;;;21.50;59.74;101270.00;131445;1260;107638;-78
2023/09/05 10:57:40;;;;;;;2.50;2.30;;;;;;;21.49;59.93;101265.69;131447;1258;107743;-77
2023/09/05 11:00:48;;;;;;;3.20;2.40;;;;;;;21.46;59.82;101264.73;131485;1251;106565;-78
2023/09/05 11:03:53;;;;;;;3.70;2.70;;;;;;;21.39;59.15;101263.43;131424;1250;107788;-77
2023/09/05 11:07:05;;;;;;;4.60;2.50;;;;;;;21.39;58.96;101258.04;131332;1257;106587;-77
2023/09/05 11:10:25;;;;;;;4.40;2.60;;;;;;;21.40;58.86;101249.55;131412;1253;108628;-77
2023/09/05 11:13:30;;;;;;;4.20;2.40;;;;;;;21.42;59.09;101242.14;131418;1250;106278;-78
2023/09/05 11:16:47;;;;;;;3.60;2.60;;;;;;;21.47;59.21;101245.71;131461;1260;107678;-77
2023/09/05 11:19:53;;;;;;;3.70;2.40;;;;;;;21.51;58.84;101242.10;131513;1257;107959;-77
2023/09/05 11:23:09;;;;;;;4.10;2.80;;;;;;;21.57;58.66;101241.41;131393;1254;109315;-77
2023/09/05 11:26:15;;;;;;;4.20;2.80;;;;;;;21.56;55.88;101233.39;131380;1250;108578;-77
2023/09/05 11:29:22;;;;;;;3.70;2.30;;;;;;;21.50;56.37;101232.06;131404;1260;107121;-78
2023/09/05 11:32:31;;;;;;;3.30;2.30;;;;;;;21.55;57.40;101234.38;131408;1257;107923;-77
2023/09/05 11:35:38;;;;;;;4.40;2.50;;;;;;;21.59;57.15;101235.48;131457;1260;106937;-77
2023/09/05 11:38:52;;;;;;;4.10;2.30;;;;;;;21.62;57.17;101233.08;131490;1248;106602;-77
2023/09/05 11:41:59;;;;;;;3.70;2.50;;;;;;;21.62;57.53;101228.45;131467;1256;107233;-77
2023/09/05 11:45:15;;;;;;;3.70;2.40;;;;;;;21.65;57.78;101224.36;131429;1254;108610;-77
2023/09/05 11:48:23;;;;;;;4.20;2.80;;;;;;;21.68;57.49;101219.89;131345;1253;108542;-77
2023/09/05 11:51:29;;;;;;;4.20;2.80;;;;;;;21.70;55.42;101218.32;131391;1257;106323;-77
2023/09/05 11:54:35;;;;;;;5.10;3.00;;;;;;;21.65;55.01;101210.61;131451;1253;108623;-77
2023/09/05 11:57:41;;;;;;;5.00;2.60;;;;;;;21.61;52.46;101207.59;131451;1250;106718;-77
2023/09/05 12:00:50;;;;;;;4.00;2.70;;;;;;;21.54;52.11;101204.13;131312;1261;107536;-77
2023/09/05 12:04:03;;;;;;;4.00;2.50;;;;;;;21.54;52.73;101202.30;131455;1250;108687;-77
2023/09/05 12:07:09;;;;;;;3.50;2.40;;;;;;;21.59;54.44;101197.88;131289;1253;107558;-77
2023/09/05 12:10:14;;;;;;;3.40;2.50;;;;;;;21.60;54.27;101194.96;131440;1250;108213;-77
2023/09/05 12:13:20;;;;;;;3.40;2.30;;;;;;;21.63;53.88;101191.38;131457;1260;108243;-77
2023/09/05 12:16:28;;;;;;;2.40;2.20;;;;;;;21.65;53.31;101190.55;131396;1260;107803;-80
2023/09/05 12:19:34;;;;;;;2.20;2.00;;;;;;;21.64;54.59;101189.59;131391;1260;108263;-73
2023/09/05 12:22:39;;;;;;;3.10;2.30;;;;;;;21.63;53.99;101185.91;131472;1254;107170;-73
2023/09/05 12:25:52;;;;;;;3.90;2.50;;;;;;;21.63;54.61;101179.38;131343;1254;108544;-72
2023/09/05 12:28:58;;;;;;;3.00;2.30;;;;;;;21.64;53.54;101172.42;131434;1252;107867;-73
2023/09/05 12:32:05;;;;;;;3.60;2.50;;;;;;;21.67;50.66;101174.02;131430;1251;107656;-73
2023/09/05 12:35:11;;;;;;;3.00;2.50;;;;;;;21.72;51.55;101172.16;131461;1260;107123;-72
2023/09/05 12:38:17;;;;;;;3.10;2.20;;;;;;;21.78;53.57;101170.48;131385;1260;108131;-73
2023/09/05 12:41:22;;;;;;;3.10;2.20;;;;;;;21.77;52.25;101166.31;131387;1261;106937;-72
2023/09/05 12:44:29;;;;;;;2.50;2.30;;;;;;;21.77;53.23;101163.17;131407;1247;108020;-73
2023/09/05 12:47:35;;;;;;;2.60;2.20;;;;;;;21.77;53.34;101155.95;131282;1257;107230;-73
2023/09/05 12:50:42;;;;;;;2.50;2.20;;;;;;;21.76;54.09;101147.71;131411;1254;107066;-73
2023/09/05 12:53:50;;;;;;;3.40;2.20;;;;;;;21.71;51.56;101141.88;131326;1260;106853;-73
2023/09/05 12:56:56;;;;;;;3.10;2.20;;;;;;;21.66;50.82;101137.94;131099;1254;429634;-73
2023/09/05 13:00:02;;;;;;;2.30;2.00;;;;;;;21.64;52.12;101143.08;131373;1251;107723;-74
2023/09/05 13:03:10;;;;;;;3.70;2.40;;;;;;;21.68;51.89;101147.81;131426;1252;106918;-73
2023/09/05 13:06:17;;;;;;;3.10;2.40;;;;;;;21.70;51.26;101139.00;131442;1251;107594;-72
2023/09/05 13:09:24;;;;;;;3.10;2.30;;;;;;;21.73;51.49;101134.38;131373;1250;107798;-73
2023/09/05 13:12:30;;;;;;;5.00;2.50;;;;;;;21.77;51.75;101128.70;131426;1254;107369;-72
2023/09/05 13:15:37;;;;;;;3.70;2.30;;;;;;;21.77;51.35;101120.51;131418;1250;107665;-73
2023/09/05 13:18:43;;;;;;;3.40;2.30;;;;;;;21.77;51.26;101120.51;131383;1252;107636;-73
2023/09/05 13:21:48;;;;;;;4.90;2.60;;;;;;;21.76;51.34;101113.39;131434;1254;107358;-73
2023/09/05 13:24:54;;;;;;;3.10;2.40;;;;;;;21.74;51.11;101112.64;131347;1254;108614;-72
2023/09/05 13:28:01;;;;;;;3.70;2.80;;;;;;;21.74;51.38;101113.30;131450;1254;107482;-73
2023/09/05 13:31:07;;;;;;;3.40;2.50;;;;;;;21.78;51.52;101109.59;131312;1260;107635;-73
2023/09/05 13:34:12;;;;;;;3.30;2.30;;;;;;;21.82;51.54;101104.05;131390;1250;108556;-73
2023/09/05 13:37:18;;;;;;;3.80;2.60;;;;;;;21.83;51.18;101100.41;131474;1253;108487;-73
2023/09/05 13:40:24;;;;;;;6.20;2.70;;;;;;;21.84;51.26;101100.45;131438;1261;107239;-73
2023/09/05 13:43:29;;;;;;;5.10;2.60;;;;;;;21.82;50.26;101100.25;131434;1254;106919;-72
2023/09/05 13:46:36;;;;;;;3.30;2.60;;;;;;;21.83;50.24;101102.16;131460;1250;107089;-72
2023/09/05 13:49:42;;;;;;;2.70;2.30;;;;;;;21.87;50.42;101095.98;131493;1260;106989;-72
2023/09/05 13:52:47;;;;;;;3.00;2.20;;;;;;;21.84;50.01;101086.20;131468;1250;107869;-74
2023/09/05 13:55:53;;;;;;;3.80;2.30;;;;;;;21.86;49.73;101080.48;131394;1250;107549;-74
2023/09/05 13:58:59;;;;;;;4.70;2.50;;;;;;;21.90;49.91;101084.80;131366;1260;108324;-72
2023/09/05 14:02:05;;;;;;;3.70;2.60;;;;;;;21.93;50.09;101083.33;131436;1250;106537;-73
2023/09/05 14:05:12;;;;;;;4.70;2.70;;;;;;;21.92;49.90;101079.06;131794;1251;107350;-72
2023/09/05 14:08:17;;;;;;;3.30;2.60;;;;;;;21.93;49.81;101074.84;131373;1251;106046;-73